Time;durP1;ratioP1;P1;durP2;ratioP2;P2;SDS_P1;SDS_P2;PMS_P1;PMS_P2;Temp;Humidity;BMP_temperature;BMP_pressure;BME280_temperature;BME280_humidity;BME280_pressure;Samples;Min_cycle;Max_cycle;Signal;HPM_P1;HPM_P2
2022/08/06 00:02:21;;;;;;;8.60;7.45;;;;;;;23.56;nan;94946.22;5016873;28;20203;-72
2022/08/06 00:04:48;;;;;;;10.23;7.50;;;;;;;23.52;nan;94963.00;5022986;28;20537;-71
2022/08/06 00:07:16;;;;;;;7.57;6.95;;;;;;;;;;5022965;28;20209;-73
2022/08/06 00:09:43;;;;;;;7.47;6.28;;;;;;;23.06;nan;94956.53;5021654;28;20233;-71
2022/08/06 00:12:10;;;;;;;7.20;5.70;;;;;;;22.63;nan;94968.81;5021081;28;20246;-71
2022/08/06 00:14:37;;;;;;;6.53;5.93;;;;;;;22.35;nan;94965.06;5022022;28;21108;-70
2022/08/06 00:17:04;;;;;;;9.25;7.43;;;;;;;22.51;nan;94975.81;5023006;28;20263;-70
2022/08/06 00:19:31;;;;;;;9.48;7.70;;;;;;;22.80;nan;94967.44;5018264;28;21018;-72
2022/08/06 00:21:58;;;;;;;7.32;6.78;;;;;;;22.81;nan;94967.31;5022094;28;20567;-70
2022/08/06 00:24:26;;;;;;;8.77;6.65;;;;;;;22.77;nan;94968.47;5020578;28;20214;-73
2022/08/06 00:26:53;;;;;;;8.77;6.45;;;;;;;22.71;nan;94966.41;5026407;28;20653;-70
2022/08/06 00:29:20;;;;;;;7.63;7.03;;;;;;;22.34;nan;94978.94;5026112;28;20230;-72
2022/08/06 00:31:47;;;;;;;6.22;5.85;;;;;;;;;;5024492;28;20738;-71
2022/08/06 00:34:14;;;;;;;7.50;6.90;;;;;;;;;;5025311;28;20206;-68
2022/08/06 00:36:40;;;;;;;7.18;6.55;;;;;;;22.20;nan;94982.66;5022908;28;20205;-70
2022/08/06 00:39:08;;;;;;;7.03;6.50;;;;;;;22.33;nan;94982.47;5020195;28;20211;-70
2022/08/06 00:41:37;;;;;;;8.30;7.03;;;;;;;22.63;nan;94979.16;5026492;28;20289;-72
2022/08/06 00:44:05;;;;;;;7.43;6.72;;;;;;;22.50;nan;94979.38;5023175;28;20215;-72
2022/08/06 00:46:32;;;;;;;8.60;6.38;;;;;;;22.40;nan;94976.69;5021023;28;20210;-68
2022/08/06 00:48:59;;;;;;;9.68;6.38;;;;;;;22.43;nan;94982.56;5021861;28;20632;-73
2022/08/06 00:51:26;;;;;;;7.30;6.57;;;;;;;22.86;nan;94970.34;5019178;28;20213;-71
2022/08/06 00:53:53;;;;;;;7.03;6.43;;;;;;;23.19;nan;94976.25;5019094;28;20289;-72
2022/08/06 00:56:20;;;;;;;11.77;6.93;;;;;;;;;;5022556;28;20218;-70
2022/08/06 00:58:49;;;;;;;21.98;7.22;;;;;;;;;;5022353;28;20654;-70
2022/08/06 01:01:16;;;;;;;7.45;6.78;;;;;;;23.77;nan;94981.63;5022627;28;20199;-72
2022/08/06 01:03:42;;;;;;;10.15;7.15;;;;;;;23.77;nan;94979.03;5020457;28;20206;-73
2022/08/06 01:06:09;;;;;;;8.48;7.25;;;;;;;23.80;nan;94981.38;5019277;28;20235;-72
2022/08/06 01:08:36;;;;;;;7.80;7.07;;;;;;;;;;5023403;28;20226;-70
2022/08/06 01:11:03;;;;;;;7.85;7.22;;;;;;;23.76;nan;94980.03;5018876;28;20206;-71
2022/08/06 01:13:29;;;;;;;7.35;6.43;;;;;;;23.68;nan;94973.72;5018664;28;20231;-72
2022/08/06 01:16:08;;;;;;;7.47;6.75;;;;;;;23.72;nan;94963.91;5022500;28;20209;-69
2022/08/06 01:18:45;;;;;;;7.10;6.40;;;;;;;23.83;nan;94965.53;5023399;28;20217;-72
2022/08/06 01:21:33;;;;;;;7.22;6.35;;;;;;;23.89;nan;94965.00;5019058;28;20574;-71
2022/08/06 01:24:17;;;;;;;7.57;6.38;;;;;;;23.78;nan;94968.53;5022112;28;20827;-70
2022/08/06 01:26:51;;;;;;;9.60;7.13;;;;;;;23.87;nan;94967.72;5021862;28;20263;-72
2022/08/06 01:29:25;;;;;;;7.95;7.35;;;;;;;23.98;nan;94965.03;5022272;28;20223;-72
2022/08/06 01:31:56;;;;;;;7.78;7.05;;;;;;;24.00;nan;94972.69;5025004;28;20202;-74
2022/08/06 01:34:25;;;;;;;8.05;7.30;;;;;;;;;;5023111;28;20214;-73
2022/08/06 01:36:58;;;;;;;9.32;6.72;;;;;;;24.25;nan;94966.97;5026028;28;20202;-72
2022/08/06 01:39:28;;;;;;;18.45;14.88;;;;;;;24.33;nan;94967.13;5024487;28;20199;-71
2022/08/06 01:41:57;;;;;;;26.92;19.00;;;;;;;24.38;nan;94969.31;5024081;28;20576;-72
2022/08/06 01:44:30;;;;;;;13.88;12.45;;;;;;;24.41;nan;94956.88;5022802;28;20206;-73
2022/08/06 01:47:03;;;;;;;10.88;8.45;;;;;;;24.48;nan;94957.13;5023221;28;20301;-72
2022/08/06 01:49:30;;;;;;;7.93;7.32;;;;;;;;;;5022044;28;20313;-72
2022/08/06 01:52:00;;;;;;;6.35;5.95;;;;;;;23.61;nan;94962.22;5023331;28;20212;-73
2022/08/06 01:54:27;;;;;;;5.97;5.55;;;;;;;;;;5023800;28;20255;-71
2022/08/06 01:56:56;;;;;;;5.97;5.47;;;;;;;23.11;nan;94984.66;5023451;28;20701;-71
2022/08/06 01:59:25;;;;;;;7.28;6.07;;;;;;;;;;5018383;28;20210;-69
2022/08/06 02:01:55;;;;;;;6.25;5.65;;;;;;;;;;5022418;28;21706;-73
2022/08/06 02:04:23;;;;;;;6.15;5.78;;;;;;;;;;5022848;28;20210;-73
2022/08/06 02:06:51;;;;;;;7.28;6.20;;;;;;;;;;5023738;28;20233;-72
2022/08/06 02:09:18;;;;;;;10.35;6.50;;;;;;;;;;5024104;28;20345;-73
2022/08/06 02:11:47;;;;;;;7.63;6.10;;;;;;;;;;5020235;28;20214;-73
2022/08/06 02:14:15;;;;;;;6.93;6.32;;;;;;;;;;5024710;28;20242;-73
2022/08/06 02:16:43;;;;;;;6.80;6.15;;;;;;;;;;5023925;28;20205;-73
2022/08/06 02:19:13;;;;;;;7.35;6.03;;;;;;;;;;5023579;28;20198;-74
2022/08/06 02:21:43;;;;;;;7.25;6.13;;;;;;;21.45;nan;94943.78;5025994;28;20195;-70
2022/08/06 02:24:11;;;;;;;7.00;6.50;;;;;;;21.22;nan;94939.59;5022951;28;22647;-73
2022/08/06 02:26:39;;;;;;;6.40;5.80;;;;;;;;;;5027628;28;20238;-68
2022/08/06 02:29:07;;;;;;;6.25;5.85;;;;;;;;;;5024876;28;20231;-73
2022/08/06 02:31:34;;;;;;;5.85;5.53;;;;;;;22.21;nan;94935.13;5023133;28;20202;-72
2022/08/06 02:34:01;;;;;;;8.05;5.50;;;;;;;;;;5022629;28;20203;-73
2022/08/06 02:36:36;;;;;;;8.35;6.00;;;;;;;22.44;nan;94942.78;5022367;28;20202;-71
2022/08/06 02:39:07;;;;;;;6.38;5.88;;;;;;;22.48;nan;94944.19;5023293;28;20831;-75
2022/08/06 02:41:37;;;;;;;6.90;5.30;;;;;;;;;;5022266;28;20221;-73
2022/08/06 02:44:10;;;;;;;6.07;5.68;;;;;;;22.63;nan;94948.91;5022098;28;20312;-72
2022/08/06 02:46:41;;;;;;;5.72;5.32;;;;;;;22.52;nan;94940.38;5019999;28;20210;-75
2022/08/06 02:49:13;;;;;;;6.13;5.72;;;;;;;22.41;nan;94943.84;5019612;28;22354;-73
2022/08/06 02:51:46;;;;;;;7.60;5.38;;;;;;;22.34;nan;94942.69;5018448;28;20347;-76
2022/08/06 02:54:14;;;;;;;7.90;5.82;;;;;;;;;;5018942;28;20202;-72
2022/08/06 02:56:45;;;;;;;5.25;4.85;;;;;;;22.24;nan;94945.25;5021978;28;20646;-72
2022/08/06 02:59:14;;;;;;;8.07;6.28;;;;;;;22.16;nan;94945.03;5020470;28;20207;-72
2022/08/06 03:01:46;;;;;;;6.70;6.10;;;;;;;21.95;nan;94957.91;5019174;28;20329;-72
2022/08/06 03:04:16;;;;;;;7.05;6.35;;;;;;;21.21;nan;94950.88;5019988;28;20701;-68
2022/08/06 03:06:47;;;;;;;7.35;6.40;;;;;;;20.62;nan;94958.75;5021044;28;21233;-73
2022/08/06 03:09:16;;;;;;;7.00;6.30;;;;;;;;;;5019609;28;20206;-72
2022/08/06 03:11:42;;;;;;;7.05;6.45;;;;;;;;;;5019674;28;20245;-72
2022/08/06 03:14:11;;;;;;;9.25;6.45;;;;;;;19.65;nan;94953.78;5021335;28;20208;-71
2022/08/06 03:16:39;;;;;;;7.20;6.63;;;;;;;19.94;nan;94951.72;5021026;28;20205;-69
2022/08/06 03:19:06;;;;;;;8.23;6.10;;;;;;;;;;5022481;28;20203;-69
2022/08/06 03:21:35;;;;;;;6.82;6.43;;;;;;;19.86;nan;94948.84;5021837;28;20202;-72
2022/08/06 03:24:03;;;;;;;7.82;7.05;;;;;;;;;;5022533;28;20202;-72
2022/08/06 03:26:32;;;;;;;9.10;6.53;;;;;;;20.12;nan;94955.53;5022470;28;20336;-72
2022/08/06 03:29:00;;;;;;;7.88;6.70;;;;;;;19.93;nan;94950.06;5019657;28;20202;-74
2022/08/06 03:31:28;;;;;;;7.22;6.50;;;;;;;19.69;nan;94962.97;5022614;28;20207;-74
2022/08/06 03:33:56;;;;;;;7.13;6.45;;;;;;;19.49;nan;94987.53;5021393;28;20244;-73
2022/08/06 03:36:23;;;;;;;8.32;7.22;;;;;;;;;;5020225;28;20203;-71
2022/08/06 03:38:52;;;;;;;7.53;6.88;;;;;;;;;;5021368;28;20293;-71
2022/08/06 03:41:20;;;;;;;6.75;6.03;;;;;;;20.53;nan;94954.31;5019897;28;20696;-73
2022/08/06 03:43:47;;;;;;;11.63;6.85;;;;;;;;;;5022022;28;20598;-71
2022/08/06 03:46:16;;;;;;;8.57;6.75;;;;;;;;;;5022247;28;20293;-71
2022/08/06 03:48:44;;;;;;;10.32;7.15;;;;;;;20.28;nan;94970.75;5023050;28;20280;-71
2022/08/06 03:51:14;;;;;;;8.68;7.20;;;;;;;20.35;nan;94961.59;5022506;28;20231;-71
2022/08/06 03:53:44;;;;;;;11.68;6.43;;;;;;;;;;5022204;28;20659;-73
2022/08/06 03:56:16;;;;;;;8.13;5.90;;;;;;;21.38;nan;94958.13;5022010;28;20234;-69
2022/08/06 03:58:47;;;;;;;7.00;6.32;;;;;;;21.68;nan;94958.31;5021929;28;20195;-70
2022/08/06 04:01:23;;;;;;;7.28;6.65;;;;;;;21.23;nan;94954.97;5023005;28;20198;-68
2022/08/06 04:03:51;;;;;;;7.93;7.28;;;;;;;;;;5023468;28;20331;-71
2022/08/06 04:06:18;;;;;;;9.10;6.38;;;;;;;;;;5025099;28;20248;-70
2022/08/06 04:08:45;;;;;;;7.47;6.15;;;;;;;;;;5022747;28;20207;-70
2022/08/06 04:11:13;;;;;;;7.05;6.63;;;;;;;22.21;nan;94967.97;5023090;28;20242;-70
2022/08/06 04:13:41;;;;;;;7.78;7.10;;;;;;;22.39;nan;94992.34;5026441;28;20242;-73
2022/08/06 04:16:09;;;;;;;7.93;6.80;;;;;;;;;;5026650;28;20348;-71
2022/08/06 04:18:38;;;;;;;8.70;7.57;;;;;;;21.66;nan;94983.47;5025269;28;20921;-73
2022/08/06 04:21:09;;;;;;;8.07;7.30;;;;;;;21.53;nan;94975.03;5023794;28;21050;-72
2022/08/06 04:23:37;;;;;;;7.93;7.32;;;;;;;21.56;nan;94987.72;5025317;28;20207;-68
2022/08/06 04:26:07;;;;;;;16.48;8.15;;;;;;;21.68;nan;94989.34;5025003;28;20920;-71
2022/08/06 04:28:37;;;;;;;8.13;7.45;;;;;;;22.17;nan;94982.91;5025271;28;20214;-70
2022/08/06 04:31:05;;;;;;;9.10;6.97;;;;;;;22.84;nan;94987.78;5022862;28;20231;-73
2022/08/06 04:33:36;;;;;;;9.07;7.68;;;;;;;22.98;nan;94997.84;5024419;28;20218;-71
2022/08/06 04:36:06;;;;;;;11.02;8.23;;;;;;;23.64;nan;94981.88;5024591;28;22336;-74
2022/08/06 04:38:33;;;;;;;10.77;8.10;;;;;;;;;;5025332;28;20297;-69
2022/08/06 04:41:01;;;;;;;8.30;7.05;;;;;;;24.41;nan;94997.59;5024346;28;20660;-72
2022/08/06 04:43:28;;;;;;;9.18;7.75;;;;;;;24.72;nan;94991.31;5024091;28;20202;-73
2022/08/06 04:45:55;;;;;;;13.43;7.20;;;;;;;24.93;nan;94993.72;5022780;28;20202;-69
2022/08/06 04:48:22;;;;;;;8.70;7.75;;;;;;;;;;5024225;28;21709;-72
2022/08/06 04:50:50;;;;;;;9.38;7.00;;;;;;;;;;5022138;28;20309;-70
2022/08/06 04:53:19;;;;;;;10.70;6.65;;;;;;;25.38;nan;94993.88;5024347;28;20295;-73
2022/08/06 04:55:47;;;;;;;8.23;7.40;;;;;;;25.45;nan;94999.34;5023785;28;20681;-73
2022/08/06 04:58:16;;;;;;;8.07;7.28;;;;;;;25.62;nan;94995.97;5022433;28;20206;-69
2022/08/06 05:00:45;;;;;;;5.68;5.35;;;;;;;26.07;nan;94995.19;5025988;28;20199;-72
2022/08/06 05:03:12;;;;;;;6.55;5.68;;;;;;;27.14;nan;95005.59;5022809;28;20210;-69
2022/08/06 05:05:44;;;;;;;7.25;6.20;;;;;;;28.62;nan;94998.97;5025487;28;20813;-72
2022/08/06 05:08:13;;;;;;;7.03;6.32;;;;;;;29.96;nan;94994.78;5025093;28;20232;-70
2022/08/06 05:10:49;;;;;;;10.98;9.55;;;;;;;30.57;nan;94999.25;5022768;28;20227;-69
2022/08/06 05:13:16;;;;;;;8.75;6.47;;;;;;;;;;5023698;28;20720;-73
2022/08/06 05:15:50;;;;;;;7.10;6.40;;;;;;;30.51;nan;94994.66;5024734;28;20194;-71
2022/08/06 05:18:18;;;;;;;7.30;6.72;;;;;;;;;;5026211;28;20268;-74
2022/08/06 05:20:52;;;;;;;7.00;6.43;;;;;;;;;;5023775;28;20199;-73
2022/08/06 05:23:23;;;;;;;8.18;6.95;;;;;;;31.94;nan;94987.56;5024465;28;20247;-73
2022/08/06 05:25:50;;;;;;;7.43;6.78;;;;;;;;;;5025109;28;20218;-73
2022/08/06 05:28:17;;;;;;;7.13;6.72;;;;;;;34.00;nan;94986.47;5022824;28;20202;-71
2022/08/06 05:30:47;;;;;;;7.68;7.18;;;;;;;34.84;nan;94986.91;5024907;28;20234;-72
2022/08/06 05:33:23;;;;;;;7.05;6.40;;;;;;;36.04;nan;94985.72;5022249;28;20206;-72
2022/08/06 05:35:50;;;;;;;7.18;6.60;;;;;;;37.67;nan;94982.13;5023328;28;20220;-73
2022/08/06 05:38:16;;;;;;;6.93;6.45;;;;;;;;;;5024806;28;20198;-73
2022/08/06 05:40:44;;;;;;;7.05;6.32;;;;;;;39.63;nan;94981.34;5024443;28;20695;-73
2022/08/06 05:43:11;;;;;;;6.93;6.32;;;;;;;;;;5022609;28;20214;-72
2022/08/06 05:45:41;;;;;;;6.50;6.03;;;;;;;40.34;nan;94974.06;5022330;28;20206;-71
2022/08/06 05:48:09;;;;;;;7.72;7.22;;;;;;;39.97;nan;94976.22;5022598;28;20272;-73
2022/08/06 05:50:40;;;;;;;6.80;6.40;;;;;;;40.82;nan;94994.91;5024621;28;20308;-73
2022/08/06 05:53:12;;;;;;;7.80;5.70;;;;;;;41.18;nan;94971.50;5024126;28;21344;-73
2022/08/06 05:55:44;;;;;;;6.53;5.90;;;;;;;41.15;nan;94966.63;5023054;28;20210;-72
2022/08/06 05:58:15;;;;;;;6.95;6.45;;;;;;;40.33;nan;94970.59;5023052;28;21805;-72
2022/08/06 06:00:43;;;;;;;7.30;6.28;;;;;;;40.36;nan;94964.75;5022008;28;20211;-73
2022/08/06 06:03:13;;;;;;;7.07;6.47;;;;;;;40.74;nan;94977.47;5022823;28;20206;-71
2022/08/06 06:05:41;;;;;;;6.15;5.70;;;;;;;41.15;nan;94948.78;5023425;28;20226;-71
2022/08/06 06:08:08;;;;;;;6.38;5.88;;;;;;;41.83;nan;94958.28;5025082;28;20206;-71
2022/08/06 06:10:37;;;;;;;6.80;6.03;;;;;;;40.81;nan;94955.19;5021847;28;20234;-72
2022/08/06 06:13:05;;;;;;;8.38;6.35;;;;;;;40.28;nan;94956.34;5019666;28;20238;-72
2022/08/06 06:15:44;;;;;;;6.35;6.05;;;;;;;40.01;nan;94956.91;5023354;28;20203;-72
2022/08/06 06:18:19;;;;;;;6.90;6.47;;;;;;;40.98;nan;94972.78;5023498;28;20197;-72
2022/08/06 06:20:53;;;;;;;8.30;7.47;;;;;;;40.39;nan;94950.97;5026813;28;20205;-72
2022/08/06 06:23:29;;;;;;;8.60;7.80;;;;;;;40.21;nan;94945.81;5024318;28;20210;-71
2022/08/06 06:26:03;;;;;;;13.77;12.88;;;;;;;39.83;nan;94953.56;5021180;28;20198;-70
2022/08/06 06:28:56;;;;;;;17.15;15.43;;;;;;;39.32;nan;94947.16;5025036;28;20216;-71
2022/08/06 06:31:29;;;;;;;7.60;6.85;;;;;;;39.49;nan;94953.41;5023121;28;20287;-71
2022/08/06 06:34:08;;;;;;;7.03;6.53;;;;;;;40.08;nan;94946.13;5021777;28;20202;-72
2022/08/06 06:36:44;;;;;;;11.55;10.55;;;;;;;40.37;nan;94945.06;5022066;28;20214;-71
2022/08/06 06:39:19;;;;;;;21.25;17.63;;;;;;;40.32;nan;94942.34;5022513;28;20213;-71
2022/08/06 06:41:52;;;;;;;9.68;8.88;;;;;;;39.62;nan;94947.81;5024198;28;20249;-72
2022/08/06 06:44:24;;;;;;;10.88;9.40;;;;;;;39.10;nan;94961.00;5022162;28;20252;-70
2022/08/06 06:47:04;;;;;;;14.40;13.00;;;;;;;39.32;nan;94941.84;5022013;28;20207;-72
2022/08/06 06:49:38;;;;;;;8.30;7.70;;;;;;;39.14;nan;94937.41;5022758;28;20236;-70
2022/08/06 06:52:09;;;;;;;8.80;7.72;;;;;;;38.79;nan;94938.19;5021407;28;20222;-69
2022/08/06 06:54:42;;;;;;;7.40;7.00;;;;;;;38.25;nan;94933.06;5021941;28;20203;-71
2022/08/06 06:57:13;;;;;;;10.52;7.57;;;;;;;38.62;nan;94936.41;5024372;28;20202;-70
2022/08/06 06:59:44;;;;;;;13.98;6.82;;;;;;;38.35;nan;94930.69;5022952;28;20233;-69
2022/08/06 07:02:18;;;;;;;5.90;5.40;;;;;;;38.28;nan;94925.47;5021499;28;20207;-71
2022/08/06 07:04:46;;;;;;;6.75;5.97;;;;;;;38.36;nan;94925.13;5022965;28;21667;-71
2022/08/06 07:07:14;;;;;;;9.60;5.75;;;;;;;38.41;nan;94933.22;5022179;28;20203;-71
2022/08/06 07:09:43;;;;;;;8.32;5.35;;;;;;;37.92;nan;94942.25;5024718;28;20205;-71
2022/08/06 07:12:12;;;;;;;6.38;5.88;;;;;;;37.64;nan;94933.97;5035417;22;20304;-71
2022/08/06 07:14:41;;;;;;;8.98;7.65;;;;;;;37.13;nan;94927.16;5002621;28;20222;-72
2022/08/06 07:17:10;;;;;;;8.80;7.20;;;;;;;36.87;nan;94928.22;5004069;28;20206;-69
2022/08/06 07:19:40;;;;;;;10.52;7.63;;;;;;;36.21;nan;94933.94;5001530;28;22313;-71
2022/08/06 07:22:08;;;;;;;8.70;7.40;;;;;;;35.84;nan;94924.97;4999835;28;20209;-71
2022/08/06 07:24:37;;;;;;;9.85;7.80;;;;;;;;;;5000712;28;20207;-71
2022/08/06 07:27:04;;;;;;;12.95;5.68;;;;;;;34.40;nan;94924.09;5001590;28;20209;-71
2022/08/06 07:29:32;;;;;;;9.52;5.20;;;;;;;33.55;nan;94925.44;5003038;28;20207;-70
2022/08/06 07:32:01;;;;;;;6.40;5.65;;;;;;;33.73;nan;94933.59;5003066;28;20345;-70
2022/08/06 07:34:28;;;;;;;6.35;5.63;;;;;;;34.07;nan;94919.56;5002462;28;20210;-68
2022/08/06 07:36:57;;;;;;;5.97;5.35;;;;;;;34.04;nan;94916.50;5001588;28;20471;-71
2022/08/06 07:39:30;;;;;;;5.63;5.22;;;;;;;34.18;nan;94904.97;5002538;28;20207;-71
2022/08/06 07:42:01;;;;;;;15.35;6.78;;;;;;;33.95;nan;94915.88;5005066;28;20210;-69
2022/08/06 07:44:30;;;;;;;9.15;6.20;;;;;;;33.92;nan;94899.63;5001222;28;20280;-69
2022/08/06 07:47:00;;;;;;;7.15;6.55;;;;;;;33.93;nan;94904.69;5002972;28;20218;-70
2022/08/06 07:49:40;;;;;;;7.78;6.10;;;;;;;33.96;nan;94901.66;5000906;28;20688;-70
2022/08/06 07:52:10;;;;;;;5.43;4.97;;;;;;;34.00;nan;94902.09;5001964;28;20239;-69
2022/08/06 07:54:38;;;;;;;7.75;7.05;;;;;;;33.91;nan;94905.91;5003471;28;20209;-71
2022/08/06 07:57:05;;;;;;;9.27;6.55;;;;;;;;;;5006034;28;20215;-70
2022/08/06 07:59:33;;;;;;;8.63;7.97;;;;;;;33.77;nan;94897.94;5001518;28;20208;-70
2022/08/06 08:02:03;;;;;;;6.32;5.72;;;;;;;33.70;nan;94901.56;5000737;28;20207;-69
2022/08/06 08:07:17;;;;;;;5.35;4.95;;;;;;;32.19;nan;94903.91;4981506;28;20659;-70
2022/08/06 08:09:45;;;;;;;7.60;5.53;;;;;;;31.79;nan;94906.94;4982521;28;20219;-71
2022/08/06 08:12:14;;;;;;;7.10;4.68;;;;;;;31.79;nan;94896.44;4984099;28;20906;-70
2022/08/06 08:14:44;;;;;;;5.30;4.85;;;;;;;31.90;nan;94897.78;4980864;28;20210;-71
2022/08/06 08:17:11;;;;;;;16.98;5.88;;;;;;;31.87;nan;94892.88;4980229;28;20217;-71
2022/08/06 08:19:38;;;;;;;5.68;5.13;;;;;;;32.10;nan;94892.72;4982183;28;20209;-70
2022/08/06 08:22:09;;;;;;;6.35;4.70;;;;;;;32.39;nan;94900.50;4980538;28;20664;-70
2022/08/06 08:24:41;;;;;;;4.63;4.32;;;;;;;32.79;nan;94888.50;4983500;28;20856;-72
2022/08/06 08:27:09;;;;;;;8.98;5.13;;;;;;;;;;4981632;28;20658;-72
2022/08/06 08:29:36;;;;;;;6.38;4.40;;;;;;;33.34;nan;94901.81;4980429;28;20207;-72
2022/08/06 08:32:04;;;;;;;14.18;4.53;;;;;;;33.18;nan;94887.09;4981330;28;20228;-70
2022/08/06 08:34:31;;;;;;;4.15;3.75;;;;;;;32.85;nan;94886.91;4982833;28;20230;-72
2022/08/06 08:37:00;;;;;;;5.10;4.60;;;;;;;32.88;nan;94886.53;4982155;28;20292;-70
2022/08/06 08:39:28;;;;;;;5.00;4.43;;;;;;;32.96;nan;94883.75;4980939;28;20227;-68
2022/08/06 08:42:06;;;;;;;7.55;3.92;;;;;;;33.19;nan;94887.91;4978815;28;20205;-71
2022/08/06 08:44:34;;;;;;;8.23;5.32;;;;;;;33.45;nan;94888.06;4980646;28;20200;-70
2022/08/06 08:47:01;;;;;;;4.10;3.80;;;;;;;33.54;nan;94886.91;4983132;28;20297;-70
2022/08/06 08:49:35;;;;;;;4.97;4.10;;;;;;;33.52;nan;94883.66;4985073;28;20265;-71
2022/08/06 08:52:04;;;;;;;5.47;4.53;;;;;;;33.21;nan;94886.72;4981218;28;21138;-69
2022/08/06 08:54:36;;;;;;;4.13;3.88;;;;;;;32.87;nan;94878.84;4983695;28;20894;-72
2022/08/06 08:57:05;;;;;;;9.90;3.72;;;;;;;33.08;nan;94897.19;4983558;28;20216;-71
2022/08/06 08:59:33;;;;;;;4.47;4.18;;;;;;;32.82;nan;94886.50;4982409;28;20356;-67
2022/08/06 09:02:00;;;;;;;4.97;4.53;;;;;;;32.99;nan;94887.81;4980241;28;20217;-69
2022/08/06 09:04:28;;;;;;;5.25;4.80;;;;;;;33.17;nan;94879.38;4983124;28;20299;-70
2022/08/06 09:06:55;;;;;;;4.65;4.38;;;;;;;33.44;nan;94886.44;4984488;28;20223;-70
2022/08/06 09:09:23;;;;;;;4.95;4.55;;;;;;;33.49;nan;94878.78;4983376;28;20219;-71
2022/08/06 09:11:50;;;;;;;5.10;4.75;;;;;;;33.24;nan;94875.78;4982923;28;20584;-70
2022/08/06 09:14:20;;;;;;;4.95;4.50;;;;;;;33.08;nan;94876.94;4981032;28;20333;-69
2022/08/06 09:16:49;;;;;;;4.95;4.47;;;;;;;32.82;nan;94871.50;4982772;28;20983;-70
2022/08/06 09:19:16;;;;;;;6.35;4.22;;;;;;;31.96;nan;94870.72;4982386;28;20227;-70
2022/08/06 09:21:43;;;;;;;4.40;4.20;;;;;;;31.77;nan;94872.16;4983757;28;20678;-70
2022/08/06 09:24:10;;;;;;;4.90;4.55;;;;;;;31.97;nan;94871.53;4981599;28;20200;-72
2022/08/06 09:26:37;;;;;;;7.28;4.53;;;;;;;32.39;nan;94866.31;4983120;28;20219;-69
2022/08/06 09:29:20;;;;;;;5.30;4.53;;;;;;;32.75;nan;94865.38;4983498;28;20215;-70
2022/08/06 09:31:47;;;;;;;9.88;8.05;;;;;;;32.65;nan;94852.56;4984082;28;20235;-70
2022/08/06 09:34:14;;;;;;;4.07;3.78;;;;;;;32.54;nan;94852.25;4984291;28;20207;-69
2022/08/06 09:36:45;;;;;;;6.32;4.00;;;;;;;32.59;nan;94860.38;4983864;28;20364;-69
2022/08/06 09:39:12;;;;;;;4.90;4.43;;;;;;;32.34;nan;94860.81;4984022;28;20212;-71
2022/08/06 09:41:47;;;;;;;5.25;3.83;;;;;;;32.17;nan;94856.78;4984519;28;20556;-71
2022/08/06 09:44:15;;;;;;;4.25;3.85;;;;;;;32.08;nan;94863.97;4980868;28;20215;-69
2022/08/06 09:46:46;;;;;;;7.72;4.00;;;;;;;31.95;nan;94863.03;4983110;28;20696;-72
2022/08/06 09:49:14;;;;;;;6.72;3.90;;;;;;;31.91;nan;94859.16;4983606;28;20211;-70
2022/08/06 09:51:41;;;;;;;4.38;4.05;;;;;;;31.49;nan;94857.25;4981730;28;20224;-69
2022/08/06 09:54:09;;;;;;;3.90;3.60;;;;;;;;;;4981887;28;20208;-72
2022/08/06 09:56:37;;;;;;;4.55;3.95;;;;;;;31.47;nan;94867.94;4981594;28;20204;-71
2022/08/06 09:59:06;;;;;;;3.35;3.15;;;;;;;31.53;nan;94859.31;4980728;28;20204;-72
2022/08/06 10:01:39;;;;;;;4.18;3.97;;;;;;;31.90;nan;94854.91;4982634;28;20203;-71
2022/08/06 10:04:12;;;;;;;4.13;3.80;;;;;;;32.10;nan;94851.47;4980792;28;20203;-70
2022/08/06 10:06:52;;;;;;;3.72;3.50;;;;;;;32.20;nan;94856.38;4980085;28;20258;-69
2022/08/06 10:09:19;;;;;;;7.93;3.80;;;;;;;32.32;nan;94854.91;4981686;28;22022;-71
2022/08/06 10:11:46;;;;;;;5.65;3.83;;;;;;;32.90;nan;94852.13;4981970;28;20228;-71
2022/08/06 10:14:22;;;;;;;4.05;3.72;;;;;;;33.24;nan;94843.38;4980272;28;20243;-72
2022/08/06 10:17:04;;;;;;;8.48;4.30;;;;;;;33.23;nan;94841.75;4980457;28;20216;-68
2022/08/06 10:19:33;;;;;;;6.25;3.67;;;;;;;33.53;nan;94843.13;4979082;28;20211;-70
2022/08/06 10:22:05;;;;;;;4.72;4.53;;;;;;;33.31;nan;94817.91;4981008;28;20230;-72
2022/08/06 10:24:32;;;;;;;4.40;4.20;;;;;;;33.47;nan;94859.72;4979937;28;20619;-69
2022/08/06 10:26:59;;;;;;;5.15;4.50;;;;;;;33.77;nan;94836.50;4984417;28;20634;-69
2022/08/06 10:29:28;;;;;;;5.05;4.57;;;;;;;33.66;nan;94837.06;4982452;28;20212;-71
2022/08/06 10:31:56;;;;;;;4.90;4.70;;;;;;;33.93;nan;94848.53;4981119;28;20231;-69
2022/08/06 10:34:27;;;;;;;4.40;4.00;;;;;;;34.14;nan;94840.47;4982493;28;20204;-69
2022/08/06 10:37:02;;;;;;;4.18;3.88;;;;;;;33.45;nan;94841.47;4981800;28;20210;-70
2022/08/06 10:39:34;;;;;;;7.10;4.30;;;;;;;32.62;nan;94860.00;4981999;28;20689;-69
2022/08/06 10:42:04;;;;;;;4.90;3.65;;;;;;;32.69;nan;94858.22;4981668;28;20259;-70
2022/08/06 10:44:34;;;;;;;3.67;3.47;;;;;;;32.64;nan;94837.75;4982363;28;20217;-70
2022/08/06 10:47:02;;;;;;;5.03;3.50;;;;;;;32.56;nan;94850.25;4984673;28;20203;-69
2022/08/06 10:49:31;;;;;;;4.18;3.88;;;;;;;32.39;nan;94829.50;4983166;28;20204;-71
2022/08/06 10:52:00;;;;;;;6.63;4.30;;;;;;;32.35;nan;94828.25;4983532;28;20941;-70
2022/08/06 10:54:28;;;;;;;4.05;3.78;;;;;;;32.03;nan;94828.75;4982665;28;20219;-72
2022/08/06 10:56:56;;;;;;;4.53;4.15;;;;;;;31.88;nan;94820.13;4985373;28;20273;-73
2022/08/06 10:59:22;;;;;;;5.10;4.00;;;;;;;31.96;nan;94828.66;4984105;28;20256;-69
2022/08/06 11:01:59;;;;;;;4.22;4.03;;;;;;;31.97;nan;94829.47;4980093;28;20202;-69
2022/08/06 11:04:42;;;;;;;4.75;4.35;;;;;;;32.45;nan;94823.44;4980231;28;20208;-67
2022/08/06 11:07:32;;;;;;;3.85;3.65;;;;;;;32.92;nan;94829.84;4980497;28;20208;-68
2022/08/06 11:10:18;;;;;;;4.03;3.80;;;;;;;33.09;nan;94825.09;4980399;28;20219;-69
2022/08/06 11:12:51;;;;;;;4.95;3.90;;;;;;;33.15;nan;94824.31;4981534;28;20235;-69
2022/08/06 11:15:19;;;;;;;66.82;46.60;;;;;;;32.85;nan;94817.69;4985679;28;20208;-69
2022/08/06 11:17:48;;;;;;;117.55;86.28;;;;;;;32.44;nan;94816.56;4981017;28;20287;-69
2022/08/06 11:20:41;;;;;;;4.93;4.53;;;;;;;32.18;nan;94818.94;4981672;28;20208;-72
2022/08/06 11:23:31;;;;;;;5.30;5.00;;;;;;;32.05;nan;94822.28;4965058;28;20200;-71
2022/08/06 11:25:59;;;;;;;3.60;3.40;;;;;;;32.13;nan;94810.84;4983567;28;20212;-72
2022/08/06 11:29:00;;;;;;;4.55;4.15;;;;;;;32.54;nan;94807.53;4982976;28;20677;-72
2022/08/06 11:31:32;;;;;;;6.07;5.70;;;;;;;33.08;nan;94812.94;4976147;28;20648;-72
2022/08/06 11:34:01;;;;;;;4.82;4.63;;;;;;;33.28;nan;94808.59;4981315;28;20245;-71
2022/08/06 11:36:29;;;;;;;7.28;6.78;;;;;;;33.31;nan;94810.03;4984602;28;20208;-72
2022/08/06 11:39:03;;;;;;;6.25;5.57;;;;;;;33.27;nan;94806.97;4983528;28;20853;-72
2022/08/06 11:41:30;;;;;;;5.50;5.20;;;;;;;32.98;nan;94808.00;4983729;28;20608;-69
2022/08/06 11:44:07;;;;;;;5.10;4.72;;;;;;;32.83;nan;94809.97;4983779;28;20231;-71
2022/08/06 11:46:36;;;;;;;5.15;4.65;;;;;;;32.83;nan;94815.25;4983357;28;21970;-72
2022/08/06 11:49:22;;;;;;;4.60;4.40;;;;;;;32.82;nan;94808.34;4982509;28;20965;-72
2022/08/06 11:51:52;;;;;;;4.82;4.55;;;;;;;32.91;nan;94804.56;4983363;28;20211;-71
2022/08/06 11:54:22;;;;;;;4.60;4.40;;;;;;;33.13;nan;94806.09;4980767;28;20213;-73
2022/08/06 11:57:24;;;;;;;4.50;4.30;;;;;;;33.13;nan;94805.25;4982467;28;20270;-73
2022/08/06 12:00:14;;;;;;;5.85;4.95;;;;;;;33.12;nan;94803.63;4984192;28;20931;-74
2022/08/06 12:02:49;;;;;;;4.47;4.22;;;;;;;33.30;nan;94800.50;4981483;28;20255;-73
2022/08/06 12:05:34;;;;;;;7.78;4.97;;;;;;;33.38;nan;94798.50;4984734;28;20224;-73
2022/08/06 12:08:24;;;;;;;5.10;4.80;;;;;;;33.59;nan;94800.19;4981924;28;20208;-73
2022/08/06 12:11:37;;;;;;;5.63;5.32;;;;;;;33.82;nan;94799.03;4984418;28;20211;-69
2022/08/06 12:14:26;;;;;;;4.88;4.47;;;;;;;33.82;nan;94783.22;4977809;28;20231;-72
2022/08/06 12:16:53;;;;;;;4.72;4.43;;;;;;;33.82;nan;94799.03;4983652;28;20206;-72
2022/08/06 12:19:20;;;;;;;4.28;3.88;;;;;;;33.51;nan;94791.63;4981739;28;20223;-72
2022/08/06 12:21:52;;;;;;;5.57;5.18;;;;;;;33.43;nan;94800.53;4987357;28;20218;-75
2022/08/06 12:24:24;;;;;;;5.43;4.70;;;;;;;33.54;nan;94783.34;4985087;28;20219;-75
2022/08/06 12:26:51;;;;;;;5.05;4.65;;;;;;;33.79;nan;94787.06;4987432;28;20591;-73
2022/08/06 12:29:20;;;;;;;4.55;4.30;;;;;;;33.65;nan;94777.50;4986390;28;20208;-72
2022/08/06 12:31:47;;;;;;;13.82;12.52;;;;;;;33.50;nan;94774.19;4983930;28;20212;-67
2022/08/06 12:34:25;;;;;;;17.05;13.75;;;;;;;33.60;nan;94775.47;4985870;28;20236;-74